Kalaheo, HI

4:42 AM HST on October 01, 2014 (GMT -1000)
Barking Sands PMRF | Change Station
CLOSE
Current Station
Airport
Location: Barking Sands,
Elevation: 13 ft
Nearby Weather Stations
Active Advisory: High Surf Advisory Active Notice: Record Report

Elev 13 ft 22.02 °N, 159.79 °W | Updated 46 minutes ago

Clear
Clear
75 °F
Feels Like 75 °F
N
4
Wind Variable Wind from ENE

Today
High -- | Low -- °F
--% Chance of Precip.
Yesterday
High -- | Low -- °F
Precip. -- in
6:29 AM 6:25 PM
Waxing Crescent, 48% visible
Pressure 29.90 in
Visibility 10.0 miles
Clouds Clear
Dew Point 68 °F
Humidity 79%
Rainfall 0.00 in
Snow Depth Not available.
UV 0 out of 12
Pollen Not available.
Air Quality Not available.
Flu Activity Not available.
METAR PHBK 011356Z AUTO 06003KT 10SM CLR 24/20 A2989 RMK AO2 SLP125 T02390200

More Conditions Fewer Conditions

Pressure 29.90 in
Visibility 10.0 miles
Clouds Clear
Dew Point 68 °F
Humidity 79%
Rainfall 0.00 in
Snow Depth Not available.
UV 0 out of 12
Pollen Not available.
Air Quality Not available.
Flu Activity Not available.
METAR PHBK 011356Z AUTO 06003KT 10SM CLR 24/20 A2989 RMK AO2 SLP125 T02390200

More Conditions Fewer Conditions

10-Day Weather Forecast

Almanac

Astronomy

Oct. 01, 2014 Rise Set
Actual Time 6:29 AM HST 6:25 PM HST
Civil Twilight 6:07 AM HST 6:47 PM HST
Nautical Twilight 5:41 AM HST 7:13 PM HST
Astronomical Twilight 5:15 AM HST 7:39 PM HST
Moon 1:11 PM HST No Moon Set
Length of Visible Light 12h 40m
Length of Day
11h 55m
Tomorrow will be 1m 15s shorter.
Waxing Crescent, 48% of the Moon is Illuminated
Today
Waxing Crescent
Oct 1
First Quarter
Oct 8
Full
Oct 15
Last Quarter
Oct 23
New

Today's Extremes

State Highs State Lows

Community

WunderPhotos

Upload Photos

1,757,960 photos uploaded!

Nearby

Snow Depth

Station Depth Elevation
No new snow has been reported.

Earthquake Activity

City Distance Mag. Time & Date
No recent earthquake activity has been reported nearby.
Minimum magnitude displayed is 2.5.

Coastal Water Temperatures

Place Temperature
No Stations Reporting

Nearby Weather Stations